createdAt,value
2017-04-19T00:00:05.426Z,0
2017-04-19T00:01:18.182Z,0
2017-04-19T00:02:31.428Z,0
2017-04-19T00:03:44.180Z,0
2017-04-19T00:04:57.419Z,0
2017-04-19T00:06:10.130Z,0
2017-04-19T00:07:23.369Z,0
2017-04-19T00:08:36.075Z,0
2017-04-19T00:09:49.291Z,0
2017-04-19T00:11:02.514Z,0
2017-04-19T00:12:15.757Z,0
2017-04-19T00:13:28.992Z,0
2017-04-19T00:14:41.693Z,0
2017-04-19T00:15:54.470Z,0
2017-04-19T00:17:07.703Z,0
2017-04-19T00:18:20.963Z,0
2017-04-19T00:19:33.678Z,0
2017-04-19T00:20:46.932Z,0
2017-04-19T00:22:00.171Z,0
2017-04-19T00:23:13.432Z,0
2017-04-19T00:24:26.653Z,0
2017-04-19T00:25:39.891Z,0
2017-04-19T00:26:52.620Z,0
2017-04-19T00:28:05.341Z,0
2017-04-19T00:29:18.257Z,0
2017-04-19T00:30:31.530Z,0
2017-04-19T00:31:44.800Z,0
2017-04-19T00:32:58.016Z,0
2017-04-19T00:34:11.268Z,0
2017-04-19T00:35:24.528Z,0
2017-04-19T00:36:37.238Z,0
2017-04-19T00:37:50.490Z,0
2017-04-19T00:39:03.730Z,0
2017-04-19T00:40:16.979Z,0
2017-04-19T00:41:30.349Z,0
2017-04-19T00:42:44.122Z,0
2017-04-19T00:43:56.845Z,0
2017-04-19T00:45:10.080Z,0
2017-04-19T00:46:23.307Z,0
2017-04-19T00:47:36.001Z,0
2017-04-19T00:48:49.225Z,0
2017-04-19T00:50:01.952Z,0
2017-04-19T00:51:15.152Z,0
2017-04-19T00:52:28.399Z,0
2017-04-19T00:53:41.120Z,0
2017-04-19T00:54:54.331Z,0
2017-04-19T00:56:07.633Z,0
2017-04-19T00:57:20.986Z,0
2017-04-19T00:58:33.179Z,0
2017-04-19T00:59:45.884Z,0
2017-04-19T01:00:58.081Z,0
2017-04-19T01:02:10.812Z,0
2017-04-19T01:03:24.075Z,0
2017-04-19T01:04:37.366Z,0
2017-04-19T01:05:50.115Z,0
2017-04-19T01:07:03.338Z,0
2017-04-19T01:08:16.576Z,0
2017-04-19T01:09:28.985Z,0
2017-04-19T01:10:42.265Z,0
2017-04-19T01:11:55.501Z,0
2017-04-19T01:13:08.257Z,0
2017-04-19T01:14:21.502Z,0
2017-04-19T01:15:34.728Z,0
2017-04-19T01:16:47.442Z,0
2017-04-19T01:18:00.157Z,0
2017-04-19T01:19:13.400Z,0
2017-04-19T01:20:26.604Z,0
2017-04-19T01:21:39.820Z,0
2017-04-19T01:22:53.067Z,0
2017-04-19T01:24:05.924Z,0
2017-04-19T01:25:19.123Z,0
2017-04-19T01:26:32.398Z,0
2017-04-19T01:27:45.630Z,0
2017-04-19T01:28:58.338Z,0
2017-04-19T01:30:11.057Z,0
2017-04-19T01:31:24.276Z,0
2017-04-19T01:32:37.462Z,0
2017-04-19T01:33:50.161Z,0
2017-04-19T01:35:03.416Z,0
2017-04-19T01:36:16.274Z,0
2017-04-19T01:37:29.643Z,0
2017-04-19T01:38:42.363Z,0
2017-04-19T01:39:55.082Z,0
2017-04-19T01:41:08.305Z,0
2017-04-19T01:42:21.570Z,0
2017-04-19T01:43:34.299Z,0
2017-04-19T01:44:47.546Z,0
2017-04-19T01:46:00.318Z,0
2017-04-19T01:47:13.584Z,0
2017-04-19T01:48:26.819Z,0
2017-04-19T01:49:40.250Z,0
2017-04-19T01:50:52.967Z,0
2017-04-19T01:52:06.204Z,0
2017-04-19T01:53:19.412Z,0
2017-04-19T01:54:32.662Z,0
2017-04-19T01:55:45.927Z,0
2017-04-19T01:56:59.146Z,0
2017-04-19T01:58:12.412Z,0
2017-04-19T01:59:25.137Z,0
2017-04-19T02:00:38.397Z,0
2017-04-19T02:01:51.661Z,0
2017-04-19T02:03:03.903Z,0
2017-04-19T02:04:16.587Z,0
2017-04-19T02:05:29.329Z,0
2017-04-19T02:06:42.583Z,0
2017-04-19T02:07:55.823Z,0
2017-04-19T02:09:09.044Z,0
2017-04-19T02:10:22.263Z,0
2017-04-19T02:11:34.978Z,0
2017-04-19T02:12:47.182Z,0
2017-04-19T02:13:59.880Z,0
2017-04-19T02:15:12.609Z,0
2017-04-19T02:16:25.848Z,0
2017-04-19T02:17:39.176Z,0
2017-04-19T02:18:51.907Z,0
2017-04-19T02:20:05.162Z,0
2017-04-19T02:21:18.412Z,0
2017-04-19T02:22:31.644Z,0
2017-04-19T02:23:44.857Z,0
2017-04-19T02:24:57.565Z,0
2017-04-19T02:26:10.272Z,0
2017-04-19T02:27:23.505Z,0
2017-04-19T02:28:35.744Z,0
2017-04-19T02:29:49.028Z,0
2017-04-19T02:31:02.292Z,0
2017-04-19T02:32:15.531Z,0
2017-04-19T02:33:28.781Z,0
2017-04-19T02:34:42.006Z,0
2017-04-19T02:35:55.256Z,0
2017-04-19T02:37:07.961Z,0
2017-04-19T02:38:21.206Z,0
2017-04-19T02:39:35.075Z,0
2017-04-19T02:40:49.000Z,0
2017-04-19T02:42:02.348Z,0
2017-04-19T02:43:16.300Z,0
2017-04-19T02:44:30.249Z,0
2017-04-19T02:45:44.222Z,0
2017-04-19T02:46:57.593Z,0
2017-04-19T02:48:11.524Z,0
2017-04-19T02:49:25.480Z,0
2017-04-19T02:50:39.418Z,0
2017-04-19T02:51:53.332Z,0
2017-04-19T02:53:06.759Z,0
2017-04-19T02:54:20.707Z,0
2017-04-19T02:55:34.634Z,0
2017-04-19T02:56:48.577Z,0
2017-04-19T02:58:02.496Z,0
2017-04-19T02:59:16.483Z,0
2017-04-19T03:00:29.920Z,0
2017-04-19T03:01:43.845Z,0
2017-04-19T03:02:57.826Z,0
2017-04-19T03:04:11.773Z,0
2017-04-19T03:05:25.687Z,0
2017-04-19T03:06:39.628Z,0
2017-04-19T03:07:53.060Z,0
2017-04-19T03:09:06.440Z,0
2017-04-19T03:10:20.386Z,0
2017-04-19T03:11:33.792Z,0
2017-04-19T03:12:47.959Z,0
2017-04-19T03:14:01.938Z,0
2017-04-19T03:15:15.322Z,0
2017-04-19T03:16:29.273Z,0
2017-04-19T03:17:42.658Z,0
2017-04-19T03:18:56.576Z,0
2017-04-19T03:20:09.937Z,0
2017-04-19T03:21:23.922Z,0
2017-04-19T03:22:37.875Z,0
2017-04-19T03:23:51.246Z,0
2017-04-19T03:25:04.643Z,0
2017-04-19T03:26:18.024Z,0
2017-04-19T03:27:31.966Z,0
2017-04-19T03:28:45.369Z,0
2017-04-19T03:29:59.361Z,0
2017-04-19T03:31:13.311Z,0
2017-04-19T03:32:26.714Z,0
2017-04-19T03:33:40.130Z,0
2017-04-19T03:34:54.084Z,0
2017-04-19T03:36:07.448Z,0
2017-04-19T03:37:21.428Z,0
2017-04-19T03:38:35.488Z,0
2017-04-19T03:39:48.894Z,0
2017-04-19T03:41:02.265Z,0
2017-04-19T03:42:15.120Z,0
2017-04-19T03:43:28.521Z,0
2017-04-19T03:44:41.911Z,0
2017-04-19T03:45:55.892Z,0
2017-04-19T03:47:09.830Z,0
2017-04-19T03:48:23.752Z,0
2017-04-19T03:49:37.696Z,0
2017-04-19T03:50:51.656Z,0
2017-04-19T03:52:05.642Z,0
2017-04-19T03:53:19.582Z,0
2017-04-19T03:54:32.969Z,0
2017-04-19T03:55:46.914Z,0
2017-04-19T03:57:00.856Z,0
2017-04-19T03:58:14.794Z,0
2017-04-19T03:59:28.725Z,0
2017-04-19T04:00:41.559Z,0
2017-04-19T04:01:54.385Z,0
2017-04-19T04:03:08.342Z,0
2017-04-19T04:04:21.780Z,0
2017-04-19T04:05:35.910Z,0
2017-04-19T04:06:49.288Z,0
2017-04-19T04:08:03.237Z,0
2017-04-19T04:09:17.197Z,0
2017-04-19T04:10:30.587Z,0
2017-04-19T04:11:44.486Z,0
2017-04-19T04:12:58.430Z,0
2017-04-19T04:14:11.792Z,0
2017-04-19T04:15:25.212Z,0
2017-04-19T04:16:38.608Z,0
2017-04-19T04:17:52.045Z,0
2017-04-19T04:19:05.418Z,0
2017-04-19T04:20:19.495Z,0
2017-04-19T04:21:33.433Z,0
2017-04-19T04:22:46.849Z,0
2017-04-19T04:24:00.812Z,0
2017-04-19T04:25:14.753Z,0
2017-04-19T04:26:28.698Z,0
2017-04-19T04:27:42.658Z,0
2017-04-19T04:28:56.588Z,0
2017-04-19T04:30:09.974Z,0
2017-04-19T04:31:23.938Z,0
2017-04-19T04:32:37.951Z,0
2017-04-19T04:33:51.352Z,0
2017-04-19T04:35:05.311Z,0
2017-04-19T04:36:18.703Z,0
2017-04-19T04:37:32.648Z,0
2017-04-19T04:38:46.578Z,0
2017-04-19T04:40:00.526Z,0
2017-04-19T04:41:13.910Z,0
2017-04-19T04:42:27.845Z,0
2017-04-19T04:43:41.800Z,0
2017-04-19T04:44:56.007Z,0
2017-04-19T04:46:09.948Z,0
2017-04-19T04:47:23.415Z,0
2017-04-19T04:48:36.200Z,0
2017-04-19T04:49:50.133Z,0
2017-04-19T04:51:04.110Z,0
2017-04-19T04:52:18.049Z,0
2017-04-19T04:53:31.991Z,0
2017-04-19T04:54:45.925Z,0
2017-04-19T04:55:59.306Z,0
2017-04-19T04:57:12.695Z,0
2017-04-19T04:58:26.723Z,0
2017-04-19T04:59:40.669Z,0
2017-04-19T05:00:54.650Z,0
2017-04-19T05:02:08.588Z,0
2017-04-19T05:03:22.533Z,0
2017-04-19T05:04:36.438Z,0
2017-04-19T05:05:50.380Z,0
2017-04-19T05:07:04.334Z,0
2017-04-19T05:08:17.717Z,0
2017-04-19T05:09:31.652Z,0
2017-04-19T05:10:45.619Z,0
2017-04-19T05:11:59.022Z,0
2017-04-19T05:13:12.984Z,0
2017-04-19T05:14:26.930Z,0
2017-04-19T05:15:40.861Z,0
2017-04-19T05:16:54.808Z,0
2017-04-19T05:18:08.216Z,0
2017-04-19T05:19:22.168Z,0
2017-04-19T05:20:36.123Z,0
2017-04-19T05:21:50.071Z,0
2017-04-19T05:23:03.575Z,0
2017-04-19T05:24:17.681Z,0
2017-04-19T05:25:31.613Z,0
2017-04-19T05:26:45.543Z,0
2017-04-19T05:27:59.483Z,0
2017-04-19T05:29:13.430Z,0
2017-04-19T05:30:26.807Z,0
2017-04-19T05:31:40.749Z,0
2017-04-19T05:32:54.673Z,0
2017-04-19T05:34:08.628Z,0
2017-04-19T05:35:22.605Z,0
2017-04-19T05:36:36.543Z,0
2017-04-19T05:37:50.748Z,0
2017-04-19T05:39:04.699Z,0
2017-04-19T05:40:17.515Z,0
2017-04-19T05:41:31.451Z,0
2017-04-19T05:42:44.861Z,0
2017-04-19T05:43:58.262Z,0
2017-04-19T05:45:11.647Z,0
2017-04-19T05:46:25.572Z,0
2017-04-19T05:47:39.522Z,0
2017-04-19T05:48:53.047Z,0
2017-04-19T05:50:05.879Z,0
2017-04-19T05:51:19.833Z,0
2017-04-19T05:52:33.770Z,0
2017-04-19T05:53:47.723Z,0
2017-04-19T05:55:01.701Z,0
2017-04-19T05:56:15.677Z,0
2017-04-19T05:57:29.597Z,0
2017-04-19T05:58:43.514Z,0
2017-04-19T05:59:57.469Z,0
2017-04-19T06:01:11.658Z,0
2017-04-19T06:02:25.747Z,0
2017-04-19T06:03:39.868Z,0
2017-04-19T06:04:53.811Z,0
2017-04-19T06:06:07.812Z,0
2017-04-19T06:07:21.771Z,0
2017-04-19T06:08:35.743Z,0
2017-04-19T06:09:49.689Z,0
2017-04-19T06:11:03.632Z,0
2017-04-19T06:12:17.521Z,0
2017-04-19T06:13:30.912Z,0
2017-04-19T06:14:45.219Z,0
2017-04-19T06:15:59.188Z,0
2017-04-19T06:17:12.003Z,0
2017-04-19T06:18:25.914Z,0
2017-04-19T06:19:39.290Z,0
2017-04-19T06:20:53.257Z,0
2017-04-19T06:22:07.211Z,0
2017-04-19T06:23:21.142Z,0
2017-04-19T06:24:35.087Z,0
2017-04-19T06:25:49.005Z,0
2017-04-19T06:27:03.068Z,0
2017-04-19T06:28:16.976Z,0
2017-04-19T06:29:30.945Z,0
2017-04-19T06:30:44.863Z,0
2017-04-19T06:31:58.801Z,0
2017-04-19T06:33:12.777Z,0
2017-04-19T06:34:26.151Z,0
2017-04-19T06:35:40.087Z,0
2017-04-19T06:36:53.440Z,0
2017-04-19T06:38:07.370Z,0
2017-04-19T06:39:20.193Z,0
2017-04-19T06:40:34.143Z,0
2017-04-19T06:41:48.192Z,0
2017-04-19T06:43:01.544Z,0
2017-04-19T06:44:15.493Z,0
2017-04-19T06:45:29.461Z,0
2017-04-19T06:46:43.386Z,0
2017-04-19T06:47:57.320Z,0
2017-04-19T06:49:10.689Z,0
2017-04-19T06:50:24.070Z,0
2017-04-19T06:51:38.011Z,0
2017-04-19T06:52:51.966Z,0
2017-04-19T06:54:05.910Z,0
2017-04-19T06:55:20.127Z,0
2017-04-19T06:56:34.069Z,0
2017-04-19T06:57:47.372Z,0
2017-04-19T06:59:00.595Z,0
2017-04-19T07:00:13.288Z,0
2017-04-19T07:01:26.486Z,0
2017-04-19T07:02:39.707Z,0
2017-04-19T07:03:52.917Z,0
2017-04-19T07:05:06.149Z,0
2017-04-19T07:06:18.852Z,0
2017-04-19T07:07:32.120Z,0
2017-04-19T07:08:44.927Z,0
2017-04-19T07:09:58.149Z,0
2017-04-19T07:11:10.831Z,0
2017-04-19T07:12:24.059Z,0
2017-04-19T07:13:37.303Z,0
2017-04-19T07:14:50.504Z,0
2017-04-19T07:16:03.726Z,0
2017-04-19T07:17:16.962Z,0
2017-04-19T07:18:30.221Z,0
2017-04-19T07:19:43.473Z,0
2017-04-19T07:20:56.180Z,0
2017-04-19T07:22:08.905Z,0
2017-04-19T07:23:22.117Z,0
2017-04-19T07:24:35.372Z,0
2017-04-19T07:25:48.606Z,0
2017-04-19T07:27:01.887Z,0
2017-04-19T07:28:15.133Z,0
2017-04-19T07:29:47.576Z,0
2017-04-19T07:31:00.830Z,0
2017-04-19T07:32:14.705Z,0
2017-04-19T07:33:28.631Z,0
2017-04-19T07:34:42.036Z,0
2017-04-19T07:35:56.007Z,0
2017-04-19T07:37:08.830Z,0
2017-04-19T07:38:22.789Z,0
2017-04-19T07:39:36.710Z,0
2017-04-19T07:40:50.641Z,0
2017-04-19T07:42:04.536Z,0
2017-04-19T07:43:18.483Z,0
2017-04-19T07:44:32.426Z,0
2017-04-19T07:45:45.322Z,0
2017-04-19T07:46:58.721Z,0
2017-04-19T07:48:12.663Z,0
2017-04-19T07:49:26.070Z,0
2017-04-19T07:50:39.991Z,0
2017-04-19T07:51:53.934Z,0
2017-04-19T07:53:07.825Z,0
2017-04-19T07:54:21.750Z,0
2017-04-19T07:55:35.702Z,0
2017-04-19T07:56:49.648Z,0
2017-04-19T07:58:03.624Z,0
2017-04-19T07:59:17.607Z,0
2017-04-19T08:00:30.985Z,0
2017-04-19T08:01:43.861Z,0
2017-04-19T08:02:57.246Z,0
2017-04-19T08:04:10.050Z,0
2017-04-19T08:05:22.862Z,0
2017-04-19T08:06:36.265Z,0
2017-04-19T08:07:48.536Z,0
2017-04-19T08:09:02.479Z,0
2017-04-19T08:10:14.773Z,0
2017-04-19T08:11:28.736Z,0
2017-04-19T08:12:41.566Z,0
2017-04-19T08:13:55.561Z,0
2017-04-19T08:15:08.390Z,0
2017-04-19T08:16:22.338Z,0
2017-04-19T08:17:35.728Z,0
2017-04-19T08:18:49.116Z,0
2017-04-19T08:20:01.930Z,0
2017-04-19T08:21:15.293Z,0
2017-04-19T08:22:28.091Z,0
2017-04-19T08:23:42.353Z,0
2017-04-19T08:24:55.193Z,0
2017-04-19T08:26:08.549Z,0
2017-04-19T08:27:22.513Z,0
2017-04-19T08:28:36.466Z,0
2017-04-19T08:29:50.401Z,0
2017-04-19T08:31:03.751Z,0
2017-04-19T08:32:17.710Z,0
2017-04-19T08:33:31.641Z,0
2017-04-19T08:34:45.015Z,0
2017-04-19T08:35:57.841Z,0
2017-04-19T08:37:10.828Z,0
2017-04-19T08:38:24.833Z,0
2017-04-19T08:39:38.223Z,0
2017-04-19T08:40:51.069Z,0
2017-04-19T08:42:04.462Z,0
2017-04-19T08:43:17.313Z,0
2017-04-19T08:44:31.277Z,0
2017-04-19T08:45:45.225Z,0
2017-04-19T08:46:59.164Z,0
2017-04-19T08:48:12.536Z,0
2017-04-19T08:49:26.632Z,0
2017-04-19T08:50:39.457Z,0
2017-04-19T08:51:53.410Z,0
2017-04-19T08:53:06.257Z,0
2017-04-19T08:54:19.638Z,0
2017-04-19T08:55:32.432Z,0
2017-04-19T08:56:46.382Z,0
2017-04-19T08:58:00.356Z,0
2017-04-19T08:59:13.734Z,0
2017-04-19T09:00:26.574Z,0
2017-04-19T09:01:39.974Z,0
2017-04-19T09:02:53.928Z,0
2017-04-19T09:04:07.346Z,0
2017-04-19T09:05:21.301Z,0
2017-04-19T09:06:35.276Z,0
2017-04-19T09:07:48.112Z,0
2017-04-19T09:09:02.061Z,0
2017-04-19T09:10:14.885Z,0
2017-04-19T09:11:28.272Z,5
2017-04-19T09:12:41.678Z,5
2017-04-19T09:13:54.530Z,5
2017-04-19T09:15:07.330Z,10
2017-04-19T09:16:20.704Z,10
2017-04-19T09:17:34.063Z,15
2017-04-19T09:18:47.437Z,15
2017-04-19T09:20:01.359Z,20
2017-04-19T09:21:14.192Z,25
2017-04-19T09:22:28.137Z,30
2017-04-19T09:23:41.542Z,35
2017-04-19T09:24:55.489Z,40
2017-04-19T09:26:08.893Z,40
2017-04-19T09:27:22.304Z,50
2017-04-19T09:28:36.266Z,65
2017-04-19T09:29:50.199Z,75
2017-04-19T09:31:03.007Z,90
2017-04-19T09:32:15.866Z,105
2017-04-19T09:33:29.232Z,120
2017-04-19T09:34:43.219Z,135
2017-04-19T09:35:56.059Z,140
2017-04-19T09:37:08.902Z,135
2017-04-19T09:38:22.332Z,145
2017-04-19T09:39:35.142Z,170
2017-04-19T09:40:48.703Z,180
2017-04-19T09:42:01.498Z,165
2017-04-19T09:43:14.379Z,140
2017-04-19T09:44:28.318Z,140
2017-04-19T09:45:41.682Z,150
2017-04-19T09:46:55.619Z,160
2017-04-19T09:48:09.583Z,170
2017-04-19T09:49:23.507Z,180
2017-04-19T09:50:36.892Z,190
2017-04-19T09:51:50.865Z,195
2017-04-19T09:53:03.676Z,205
2017-04-19T09:54:17.089Z,215
2017-04-19T09:55:29.995Z,220
2017-04-19T09:56:44.006Z,230
2017-04-19T09:57:57.380Z,240
2017-04-19T09:59:10.176Z,260
2017-04-19T10:00:22.992Z,265
